sensor_id;sensor_type;location;lat;lon;timestamp;P1;durP1;ratioP1;P2;durP2;ratioP2
13683;SDS011;6914;53.552;9.908;2022-10-18T00:02:20;20.67;;;13.50;;
13683;SDS011;6914;53.552;9.908;2022-10-18T00:04:47;20.13;;;13.40;;
13683;SDS011;6914;53.552;9.908;2022-10-18T00:07:14;18.83;;;14.50;;
13683;SDS011;6914;53.552;9.908;2022-10-18T00:09:41;27.53;;;15.53;;
13683;SDS011;6914;53.552;9.908;2022-10-18T00:12:09;19.33;;;13.90;;
13683;SDS011;6914;53.552;9.908;2022-10-18T00:14:35;21.90;;;14.60;;
13683;SDS011;6914;53.552;9.908;2022-10-18T00:17:02;22.43;;;14.77;;
13683;SDS011;6914;53.552;9.908;2022-10-18T00:19:29;25.70;;;15.47;;
13683;SDS011;6914;53.552;9.908;2022-10-18T00:21:56;23.67;;;16.17;;
13683;SDS011;6914;53.552;9.908;2022-10-18T00:24:23;31.40;;;17.37;;
13683;SDS011;6914;53.552;9.908;2022-10-18T00:26:49;20.30;;;16.37;;
13683;SDS011;6914;53.552;9.908;2022-10-18T00:29:17;26.90;;;17.10;;
13683;SDS011;6914;53.552;9.908;2022-10-18T00:31:44;28.63;;;15.83;;
13683;SDS011;6914;53.552;9.908;2022-10-18T00:34:12;22.80;;;16.37;;
13683;SDS011;6914;53.552;9.908;2022-10-18T00:36:40;30.50;;;16.90;;
13683;SDS011;6914;53.552;9.908;2022-10-18T00:39:11;31.47;;;18.20;;
13683;SDS011;6914;53.552;9.908;2022-10-18T00:41:40;22.33;;;16.10;;
13683;SDS011;6914;53.552;9.908;2022-10-18T00:47:09;30.90;;;17.90;;
13683;SDS011;6914;53.552;9.908;2022-10-18T00:49:38;22.10;;;16.93;;
13683;SDS011;6914;53.552;9.908;2022-10-18T00:52:08;23.00;;;16.20;;
13683;SDS011;6914;53.552;9.908;2022-10-18T00:54:38;30.43;;;18.07;;
13683;SDS011;6914;53.552;9.908;2022-10-18T00:57:07;29.57;;;17.33;;
13683;SDS011;6914;53.552;9.908;2022-10-18T00:59:35;40.80;;;18.80;;
13683;SDS011;6914;53.552;9.908;2022-10-18T01:02:03;31.30;;;16.77;;
13683;SDS011;6914;53.552;9.908;2022-10-18T01:04:32;39.53;;;19.53;;
13683;SDS011;6914;53.552;9.908;2022-10-18T01:07:00;37.03;;;18.07;;
13683;SDS011;6914;53.552;9.908;2022-10-18T01:09:34;39.43;;;19.03;;
13683;SDS011;6914;53.552;9.908;2022-10-18T01:12:13;25.57;;;18.57;;
13683;SDS011;6914;53.552;9.908;2022-10-18T01:14:48;28.43;;;18.80;;
13683;SDS011;6914;53.552;9.908;2022-10-18T01:17:20;40.00;;;20.57;;
13683;SDS011;6914;53.552;9.908;2022-10-18T01:23:01;44.17;;;23.20;;
13683;SDS011;6914;53.552;9.908;2022-10-18T01:25:35;37.73;;;22.30;;
13683;SDS011;6914;53.552;9.908;2022-10-18T01:28:10;36.00;;;22.30;;
13683;SDS011;6914;53.552;9.908;2022-10-18T01:30:47;40.70;;;21.57;;
13683;SDS011;6914;53.552;9.908;2022-10-18T01:33:21;33.87;;;21.27;;
13683;SDS011;6914;53.552;9.908;2022-10-18T01:35:56;33.07;;;21.40;;
13683;SDS011;6914;53.552;9.908;2022-10-18T01:38:26;39.30;;;23.53;;
13683;SDS011;6914;53.552;9.908;2022-10-18T01:40:57;45.50;;;23.30;;
13683;SDS011;6914;53.552;9.908;2022-10-18T01:43:27;35.63;;;22.30;;
13683;SDS011;6914;53.552;9.908;2022-10-18T01:45:56;39.43;;;21.87;;
13683;SDS011;6914;53.552;9.908;2022-10-18T01:48:25;34.53;;;21.90;;
13683;SDS011;6914;53.552;9.908;2022-10-18T01:50:52;46.27;;;23.27;;
13683;SDS011;6914;53.552;9.908;2022-10-18T01:53:23;54.80;;;22.03;;
13683;SDS011;6914;53.552;9.908;2022-10-18T01:55:54;45.33;;;20.73;;
13683;SDS011;6914;53.552;9.908;2022-10-18T01:58:34;41.27;;;22.10;;
13683;SDS011;6914;53.552;9.908;2022-10-18T02:01:07;39.83;;;20.23;;
13683;SDS011;6914;53.552;9.908;2022-10-18T02:03:43;37.53;;;21.90;;
13683;SDS011;6914;53.552;9.908;2022-10-18T02:06:14;39.87;;;21.30;;
13683;SDS011;6914;53.552;9.908;2022-10-18T02:08:46;44.97;;;21.57;;
13683;SDS011;6914;53.552;9.908;2022-10-18T02:11:17;36.10;;;23.23;;
13683;SDS011;6914;53.552;9.908;2022-10-18T02:13:44;41.50;;;22.13;;
13683;SDS011;6914;53.552;9.908;2022-10-18T02:16:17;39.73;;;21.97;;
13683;SDS011;6914;53.552;9.908;2022-10-18T02:18:47;38.83;;;22.80;;
13683;SDS011;6914;53.552;9.908;2022-10-18T02:21:18;56.40;;;25.57;;
13683;SDS011;6914;53.552;9.908;2022-10-18T02:23:46;48.73;;;24.37;;
13683;SDS011;6914;53.552;9.908;2022-10-18T02:26:14;46.47;;;23.40;;
13683;SDS011;6914;53.552;9.908;2022-10-18T02:28:41;42.13;;;23.90;;
13683;SDS011;6914;53.552;9.908;2022-10-18T02:31:11;40.47;;;24.37;;
13683;SDS011;6914;53.552;9.908;2022-10-18T02:33:46;43.03;;;23.27;;
13683;SDS011;6914;53.552;9.908;2022-10-18T02:36:18;38.27;;;24.43;;
13683;SDS011;6914;53.552;9.908;2022-10-18T02:38:51;47.20;;;25.77;;
13683;SDS011;6914;53.552;9.908;2022-10-18T02:41:21;64.67;;;25.13;;
13683;SDS011;6914;53.552;9.908;2022-10-18T02:43:49;44.87;;;23.97;;
13683;SDS011;6914;53.552;9.908;2022-10-18T02:46:16;45.13;;;24.63;;
13683;SDS011;6914;53.552;9.908;2022-10-18T02:48:45;31.77;;;21.20;;
13683;SDS011;6914;53.552;9.908;2022-10-18T02:51:12;57.20;;;26.40;;
13683;SDS011;6914;53.552;9.908;2022-10-18T02:53:39;38.90;;;21.30;;
13683;SDS011;6914;53.552;9.908;2022-10-18T02:56:06;47.30;;;24.23;;
13683;SDS011;6914;53.552;9.908;2022-10-18T02:58:33;39.43;;;23.83;;
13683;SDS011;6914;53.552;9.908;2022-10-18T03:01:00;42.63;;;23.87;;
13683;SDS011;6914;53.552;9.908;2022-10-18T03:03:26;47.73;;;25.03;;
13683;SDS011;6914;53.552;9.908;2022-10-18T03:05:55;37.67;;;24.07;;
13683;SDS011;6914;53.552;9.908;2022-10-18T03:08:21;43.67;;;24.60;;
13683;SDS011;6914;53.552;9.908;2022-10-18T03:10:48;52.17;;;25.87;;
13683;SDS011;6914;53.552;9.908;2022-10-18T03:13:15;48.77;;;24.10;;
13683;SDS011;6914;53.552;9.908;2022-10-18T03:15:42;43.30;;;25.00;;
13683;SDS011;6914;53.552;9.908;2022-10-18T03:18:09;40.07;;;23.90;;
13683;SDS011;6914;53.552;9.908;2022-10-18T03:20:36;47.50;;;26.53;;
13683;SDS011;6914;53.552;9.908;2022-10-18T03:23:04;52.93;;;26.20;;
13683;SDS011;6914;53.552;9.908;2022-10-18T03:25:31;53.20;;;26.87;;
13683;SDS011;6914;53.552;9.908;2022-10-18T03:27:58;58.70;;;26.50;;
13683;SDS011;6914;53.552;9.908;2022-10-18T03:30:25;49.47;;;27.07;;
13683;SDS011;6914;53.552;9.908;2022-10-18T03:32:52;50.17;;;25.77;;
13683;SDS011;6914;53.552;9.908;2022-10-18T03:35:19;47.77;;;24.53;;
13683;SDS011;6914;53.552;9.908;2022-10-18T03:37:46;49.20;;;24.77;;
13683;SDS011;6914;53.552;9.908;2022-10-18T03:40:14;55.90;;;25.37;;
13683;SDS011;6914;53.552;9.908;2022-10-18T03:42:41;69.47;;;26.90;;
13683;SDS011;6914;53.552;9.908;2022-10-18T03:45:08;55.60;;;26.60;;
13683;SDS011;6914;53.552;9.908;2022-10-18T03:47:35;53.73;;;26.60;;
13683;SDS011;6914;53.552;9.908;2022-10-18T03:50:02;47.30;;;25.50;;
13683;SDS011;6914;53.552;9.908;2022-10-18T03:52:29;50.00;;;26.87;;
13683;SDS011;6914;53.552;9.908;2022-10-18T03:54:56;64.70;;;27.70;;
13683;SDS011;6914;53.552;9.908;2022-10-18T03:57:24;57.43;;;29.20;;
13683;SDS011;6914;53.552;9.908;2022-10-18T03:59:51;49.87;;;28.23;;
13683;SDS011;6914;53.552;9.908;2022-10-18T04:02:18;46.13;;;27.70;;
13683;SDS011;6914;53.552;9.908;2022-10-18T04:04:45;49.23;;;26.90;;
13683;SDS011;6914;53.552;9.908;2022-10-18T04:07:11;48.73;;;27.70;;
13683;SDS011;6914;53.552;9.908;2022-10-18T04:09:38;58.20;;;30.77;;
13683;SDS011;6914;53.552;9.908;2022-10-18T04:12:05;57.13;;;29.97;;
13683;SDS011;6914;53.552;9.908;2022-10-18T04:14:33;64.07;;;28.80;;
13683;SDS011;6914;53.552;9.908;2022-10-18T04:17:00;59.70;;;29.10;;
13683;SDS011;6914;53.552;9.908;2022-10-18T04:19:28;61.57;;;28.00;;
13683;SDS011;6914;53.552;9.908;2022-10-18T04:21:55;59.60;;;27.97;;
13683;SDS011;6914;53.552;9.908;2022-10-18T04:24:22;54.13;;;28.40;;
13683;SDS011;6914;53.552;9.908;2022-10-18T04:26:50;62.60;;;28.47;;
13683;SDS011;6914;53.552;9.908;2022-10-18T04:29:16;56.43;;;27.67;;
13683;SDS011;6914;53.552;9.908;2022-10-18T04:31:45;53.27;;;28.07;;
13683;SDS011;6914;53.552;9.908;2022-10-18T04:34:12;60.27;;;26.77;;
13683;SDS011;6914;53.552;9.908;2022-10-18T04:36:39;47.60;;;27.57;;
13683;SDS011;6914;53.552;9.908;2022-10-18T04:39:05;52.70;;;26.60;;
13683;SDS011;6914;53.552;9.908;2022-10-18T04:41:32;53.50;;;27.60;;
13683;SDS011;6914;53.552;9.908;2022-10-18T04:43:59;59.83;;;27.90;;
13683;SDS011;6914;53.552;9.908;2022-10-18T04:46:26;58.30;;;28.47;;
13683;SDS011;6914;53.552;9.908;2022-10-18T04:48:54;57.10;;;27.90;;
13683;SDS011;6914;53.552;9.908;2022-10-18T04:51:21;47.93;;;27.43;;
13683;SDS011;6914;53.552;9.908;2022-10-18T04:53:47;77.43;;;29.10;;
13683;SDS011;6914;53.552;9.908;2022-10-18T04:56:14;127.30;;;29.13;;
13683;SDS011;6914;53.552;9.908;2022-10-18T04:58:41;137.97;;;27.10;;
13683;SDS011;6914;53.552;9.908;2022-10-18T05:01:08;109.10;;;27.77;;
13683;SDS011;6914;53.552;9.908;2022-10-18T05:03:35;114.33;;;28.10;;
13683;SDS011;6914;53.552;9.908;2022-10-18T05:06:03;173.73;;;29.27;;
13683;SDS011;6914;53.552;9.908;2022-10-18T05:08:31;239.30;;;28.27;;
13683;SDS011;6914;53.552;9.908;2022-10-18T05:10:58;119.57;;;26.80;;
13683;SDS011;6914;53.552;9.908;2022-10-18T05:13:26;269.17;;;26.53;;
13683;SDS011;6914;53.552;9.908;2022-10-18T05:15:52;75.40;;;24.40;;
13683;SDS011;6914;53.552;9.908;2022-10-18T05:18:19;126.87;;;27.00;;
13683;SDS011;6914;53.552;9.908;2022-10-18T05:20:46;85.93;;;26.30;;
13683;SDS011;6914;53.552;9.908;2022-10-18T05:23:14;82.43;;;24.53;;
13683;SDS011;6914;53.552;9.908;2022-10-18T05:25:42;59.63;;;26.30;;
13683;SDS011;6914;53.552;9.908;2022-10-18T05:28:09;41.00;;;25.73;;
13683;SDS011;6914;53.552;9.908;2022-10-18T05:30:36;53.60;;;25.13;;
13683;SDS011;6914;53.552;9.908;2022-10-18T05:33:03;52.60;;;27.53;;
13683;SDS011;6914;53.552;9.908;2022-10-18T05:35:29;49.67;;;28.00;;
13683;SDS011;6914;53.552;9.908;2022-10-18T05:37:56;50.77;;;26.97;;
13683;SDS011;6914;53.552;9.908;2022-10-18T05:40:24;52.43;;;27.67;;
13683;SDS011;6914;53.552;9.908;2022-10-18T05:42:51;50.60;;;25.80;;
13683;SDS011;6914;53.552;9.908;2022-10-18T05:45:18;54.93;;;26.50;;
13683;SDS011;6914;53.552;9.908;2022-10-18T05:47:45;63.27;;;27.70;;
13683;SDS011;6914;53.552;9.908;2022-10-18T05:50:12;55.40;;;29.00;;
13683;SDS011;6914;53.552;9.908;2022-10-18T05:52:39;51.33;;;26.77;;
13683;SDS011;6914;53.552;9.908;2022-10-18T05:55:06;51.00;;;27.30;;
13683;SDS011;6914;53.552;9.908;2022-10-18T05:57:34;52.40;;;27.40;;
13683;SDS011;6914;53.552;9.908;2022-10-18T06:00:02;57.73;;;27.67;;
13683;SDS011;6914;53.552;9.908;2022-10-18T06:02:29;64.40;;;27.20;;
13683;SDS011;6914;53.552;9.908;2022-10-18T06:04:56;68.80;;;26.27;;
13683;SDS011;6914;53.552;9.908;2022-10-18T06:07:23;56.27;;;26.90;;
13683;SDS011;6914;53.552;9.908;2022-10-18T06:09:50;62.27;;;25.60;;
13683;SDS011;6914;53.552;9.908;2022-10-18T06:12:16;54.87;;;26.47;;
13683;SDS011;6914;53.552;9.908;2022-10-18T06:14:44;75.17;;;28.37;;
13683;SDS011;6914;53.552;9.908;2022-10-18T06:17:13;51.47;;;24.50;;
13683;SDS011;6914;53.552;9.908;2022-10-18T06:19:40;59.90;;;23.77;;
13683;SDS011;6914;53.552;9.908;2022-10-18T06:22:08;56.60;;;24.90;;
13683;SDS011;6914;53.552;9.908;2022-10-18T06:24:35;49.13;;;24.10;;
13683;SDS011;6914;53.552;9.908;2022-10-18T06:27:02;51.07;;;25.37;;
13683;SDS011;6914;53.552;9.908;2022-10-18T06:29:32;51.07;;;24.40;;
13683;SDS011;6914;53.552;9.908;2022-10-18T06:32:01;56.27;;;25.47;;
13683;SDS011;6914;53.552;9.908;2022-10-18T06:34:28;52.47;;;23.57;;
13683;SDS011;6914;53.552;9.908;2022-10-18T06:36:54;46.20;;;23.67;;
13683;SDS011;6914;53.552;9.908;2022-10-18T06:39:21;44.43;;;21.40;;
13683;SDS011;6914;53.552;9.908;2022-10-18T06:41:48;47.90;;;22.37;;
13683;SDS011;6914;53.552;9.908;2022-10-18T06:44:15;45.83;;;21.37;;
13683;SDS011;6914;53.552;9.908;2022-10-18T06:46:42;49.70;;;22.80;;
13683;SDS011;6914;53.552;9.908;2022-10-18T06:49:11;48.53;;;21.10;;
13683;SDS011;6914;53.552;9.908;2022-10-18T06:51:39;50.07;;;24.37;;
13683;SDS011;6914;53.552;9.908;2022-10-18T06:54:06;42.90;;;22.20;;
13683;SDS011;6914;53.552;9.908;2022-10-18T06:56:33;45.67;;;21.07;;
13683;SDS011;6914;53.552;9.908;2022-10-18T06:59:00;51.60;;;23.33;;
13683;SDS011;6914;53.552;9.908;2022-10-18T07:01:27;46.77;;;20.63;;
13683;SDS011;6914;53.552;9.908;2022-10-18T07:03:54;47.27;;;21.77;;
13683;SDS011;6914;53.552;9.908;2022-10-18T07:06:22;43.47;;;20.53;;
13683;SDS011;6914;53.552;9.908;2022-10-18T07:08:49;43.40;;;22.20;;
13683;SDS011;6914;53.552;9.908;2022-10-18T07:11:19;47.10;;;22.00;;
13683;SDS011;6914;53.552;9.908;2022-10-18T07:13:49;43.87;;;21.00;;
13683;SDS011;6914;53.552;9.908;2022-10-18T07:16:17;53.57;;;21.50;;
13683;SDS011;6914;53.552;9.908;2022-10-18T07:18:45;42.20;;;20.10;;
13683;SDS011;6914;53.552;9.908;2022-10-18T07:21:13;53.13;;;21.27;;
13683;SDS011;6914;53.552;9.908;2022-10-18T07:23:43;39.53;;;19.40;;
13683;SDS011;6914;53.552;9.908;2022-10-18T07:26:11;41.33;;;20.93;;
13683;SDS011;6914;53.552;9.908;2022-10-18T07:28:39;40.73;;;19.83;;
13683;SDS011;6914;53.552;9.908;2022-10-18T07:31:07;42.20;;;20.77;;
13683;SDS011;6914;53.552;9.908;2022-10-18T07:33:35;45.40;;;21.20;;
13683;SDS011;6914;53.552;9.908;2022-10-18T07:36:03;36.70;;;20.67;;
13683;SDS011;6914;53.552;9.908;2022-10-18T07:38:32;38.20;;;19.87;;
13683;SDS011;6914;53.552;9.908;2022-10-18T07:41:00;39.40;;;18.23;;
13683;SDS011;6914;53.552;9.908;2022-10-18T07:43:28;43.30;;;20.60;;
13683;SDS011;6914;53.552;9.908;2022-10-18T07:45:56;39.13;;;20.37;;
13683;SDS011;6914;53.552;9.908;2022-10-18T07:48:25;45.57;;;21.43;;
13683;SDS011;6914;53.552;9.908;2022-10-18T07:50:52;36.40;;;19.50;;
13683;SDS011;6914;53.552;9.908;2022-10-18T07:53:19;49.40;;;19.83;;
13683;SDS011;6914;53.552;9.908;2022-10-18T07:55:46;46.53;;;20.67;;
13683;SDS011;6914;53.552;9.908;2022-10-18T07:58:14;41.27;;;20.43;;
13683;SDS011;6914;53.552;9.908;2022-10-18T08:00:41;43.47;;;20.70;;
13683;SDS011;6914;53.552;9.908;2022-10-18T08:03:07;39.33;;;20.33;;
13683;SDS011;6914;53.552;9.908;2022-10-18T08:05:34;36.97;;;20.23;;
13683;SDS011;6914;53.552;9.908;2022-10-18T08:08:01;32.63;;;20.70;;
13683;SDS011;6914;53.552;9.908;2022-10-18T08:10:27;39.87;;;19.83;;
13683;SDS011;6914;53.552;9.908;2022-10-18T08:12:54;44.50;;;19.17;;
13683;SDS011;6914;53.552;9.908;2022-10-18T08:15:22;34.80;;;20.23;;
13683;SDS011;6914;53.552;9.908;2022-10-18T08:17:49;43.80;;;18.87;;
13683;SDS011;6914;53.552;9.908;2022-10-18T08:20:16;53.20;;;21.87;;
13683;SDS011;6914;53.552;9.908;2022-10-18T08:22:43;46.47;;;19.00;;
13683;SDS011;6914;53.552;9.908;2022-10-18T08:25:10;45.33;;;19.20;;
13683;SDS011;6914;53.552;9.908;2022-10-18T08:27:37;39.97;;;18.90;;
13683;SDS011;6914;53.552;9.908;2022-10-18T08:30:04;40.97;;;18.17;;
13683;SDS011;6914;53.552;9.908;2022-10-18T08:32:34;31.90;;;16.60;;
13683;SDS011;6914;53.552;9.908;2022-10-18T08:35:01;41.03;;;17.70;;
13683;SDS011;6914;53.552;9.908;2022-10-18T08:37:28;39.07;;;17.30;;
13683;SDS011;6914;53.552;9.908;2022-10-18T08:39:55;38.87;;;16.53;;
13683;SDS011;6914;53.552;9.908;2022-10-18T08:42:28;31.23;;;16.90;;
13683;SDS011;6914;53.552;9.908;2022-10-18T08:45:13;28.80;;;16.33;;
13683;SDS011;6914;53.552;9.908;2022-10-18T08:47:42;27.50;;;16.30;;
13683;SDS011;6914;53.552;9.908;2022-10-18T08:50:14;29.87;;;16.40;;
13683;SDS011;6914;53.552;9.908;2022-10-18T08:52:43;37.57;;;17.80;;
13683;SDS011;6914;53.552;9.908;2022-10-18T08:55:17;34.10;;;18.10;;
13683;SDS011;6914;53.552;9.908;2022-10-18T08:57:48;45.13;;;17.87;;
13683;SDS011;6914;53.552;9.908;2022-10-18T09:00:17;47.40;;;17.87;;
13683;SDS011;6914;53.552;9.908;2022-10-18T09:02:51;28.33;;;16.67;;
13683;SDS011;6914;53.552;9.908;2022-10-18T09:05:30;32.87;;;16.87;;
13683;SDS011;6914;53.552;9.908;2022-10-18T09:11:03;31.83;;;17.73;;
13683;SDS011;6914;53.552;9.908;2022-10-18T09:13:58;35.63;;;16.90;;
13683;SDS011;6914;53.552;9.908;2022-10-18T09:16:33;26.07;;;16.20;;
13683;SDS011;6914;53.552;9.908;2022-10-18T09:19:15;33.47;;;15.40;;
13683;SDS011;6914;53.552;9.908;2022-10-18T09:21:50;27.90;;;15.20;;
13683;SDS011;6914;53.552;9.908;2022-10-18T09:24:21;24.20;;;14.30;;
13683;SDS011;6914;53.552;9.908;2022-10-18T09:26:54;26.97;;;13.93;;
13683;SDS011;6914;53.552;9.908;2022-10-18T09:32:20;19.43;;;13.43;;
13683;SDS011;6914;53.552;9.908;2022-10-18T09:34:54;26.27;;;13.40;;
13683;SDS011;6914;53.552;9.908;2022-10-18T09:37:23;18.83;;;13.47;;
13683;SDS011;6914;53.552;9.908;2022-10-18T09:39:54;19.30;;;12.70;;
13683;SDS011;6914;53.552;9.908;2022-10-18T09:42:28;23.07;;;11.70;;
13683;SDS011;6914;53.552;9.908;2022-10-18T09:45:01;18.53;;;10.97;;
13683;SDS011;6914;53.552;9.908;2022-10-18T09:47:31;26.80;;;11.27;;
13683;SDS011;6914;53.552;9.908;2022-10-18T09:50:05;16.93;;;10.03;;
13683;SDS011;6914;53.552;9.908;2022-10-18T09:52:43;15.00;;;9.30;;
13683;SDS011;6914;53.552;9.908;2022-10-18T09:55:16;13.10;;;9.97;;
13683;SDS011;6914;53.552;9.908;2022-10-18T09:57:47;21.13;;;10.80;;
13683;SDS011;6914;53.552;9.908;2022-10-18T10:00:20;15.83;;;9.40;;
13683;SDS011;6914;53.552;9.908;2022-10-18T10:02:50;16.57;;;9.83;;
13683;SDS011;6914;53.552;9.908;2022-10-18T10:05:18;14.33;;;9.90;;
13683;SDS011;6914;53.552;9.908;2022-10-18T10:07:46;18.20;;;10.40;;
13683;SDS011;6914;53.552;9.908;2022-10-18T10:10:15;16.20;;;10.23;;
13683;SDS011;6914;53.552;9.908;2022-10-18T10:12:45;21.73;;;10.93;;
13683;SDS011;6914;53.552;9.908;2022-10-18T10:15:16;16.53;;;10.90;;
13683;SDS011;6914;53.552;9.908;2022-10-18T10:17:44;19.13;;;13.27;;
13683;SDS011;6914;53.552;9.908;2022-10-18T10:20:20;32.30;;;12.87;;
13683;SDS011;6914;53.552;9.908;2022-10-18T10:22:50;16.40;;;10.93;;
13683;SDS011;6914;53.552;9.908;2022-10-18T10:25:19;12.73;;;9.40;;
13683;SDS011;6914;53.552;9.908;2022-10-18T10:27:48;14.10;;;10.50;;
13683;SDS011;6914;53.552;9.908;2022-10-18T10:30:25;16.77;;;11.67;;
13683;SDS011;6914;53.552;9.908;2022-10-18T10:32:53;14.50;;;11.17;;
13683;SDS011;6914;53.552;9.908;2022-10-18T10:35:23;21.70;;;12.17;;
13683;SDS011;6914;53.552;9.908;2022-10-18T10:37:55;28.73;;;10.10;;
13683;SDS011;6914;53.552;9.908;2022-10-18T10:40:22;28.90;;;11.20;;
13683;SDS011;6914;53.552;9.908;2022-10-18T10:42:58;21.97;;;11.43;;
13683;SDS011;6914;53.552;9.908;2022-10-18T10:45:28;25.17;;;9.70;;
13683;SDS011;6914;53.552;9.908;2022-10-18T10:48:01;22.80;;;9.90;;
13683;SDS011;6914;53.552;9.908;2022-10-18T10:50:32;13.30;;;8.77;;
13683;SDS011;6914;53.552;9.908;2022-10-18T10:56:19;10.23;;;7.13;;
13683;SDS011;6914;53.552;9.908;2022-10-18T10:58:48;14.03;;;7.27;;
13683;SDS011;6914;53.552;9.908;2022-10-18T11:01:24;20.80;;;8.03;;
13683;SDS011;6914;53.552;9.908;2022-10-18T11:03:53;22.20;;;7.83;;
13683;SDS011;6914;53.552;9.908;2022-10-18T11:06:31;20.93;;;8.90;;
13683;SDS011;6914;53.552;9.908;2022-10-18T11:09:24;11.87;;;6.70;;
13683;SDS011;6914;53.552;9.908;2022-10-18T11:12:00;16.20;;;6.63;;
13683;SDS011;6914;53.552;9.908;2022-10-18T11:14:35;12.17;;;5.40;;
13683;SDS011;6914;53.552;9.908;2022-10-18T11:17:11;15.00;;;5.50;;
13683;SDS011;6914;53.552;9.908;2022-10-18T11:19:49;12.00;;;5.80;;
13683;SDS011;6914;53.552;9.908;2022-10-18T11:22:28;8.97;;;4.97;;
13683;SDS011;6914;53.552;9.908;2022-10-18T11:24:58;11.60;;;5.20;;
13683;SDS011;6914;53.552;9.908;2022-10-18T11:27:27;11.90;;;5.53;;
13683;SDS011;6914;53.552;9.908;2022-10-18T11:30:01;14.87;;;5.13;;
13683;SDS011;6914;53.552;9.908;2022-10-18T11:32:40;10.87;;;5.30;;
13683;SDS011;6914;53.552;9.908;2022-10-18T11:35:21;12.00;;;5.93;;
13683;SDS011;6914;53.552;9.908;2022-10-18T11:38:01;9.70;;;7.53;;
13683;SDS011;6914;53.552;9.908;2022-10-18T11:40:43;7.73;;;5.33;;
13683;SDS011;6914;53.552;9.908;2022-10-18T11:43:22;16.60;;;7.07;;
13683;SDS011;6914;53.552;9.908;2022-10-18T11:45:54;12.63;;;5.30;;
13683;SDS011;6914;53.552;9.908;2022-10-18T11:48:39;12.83;;;5.40;;
13683;SDS011;6914;53.552;9.908;2022-10-18T11:51:27;12.47;;;5.70;;
13683;SDS011;6914;53.552;9.908;2022-10-18T11:54:05;13.07;;;5.60;;
13683;SDS011;6914;53.552;9.908;2022-10-18T11:56:49;11.80;;;5.20;;
13683;SDS011;6914;53.552;9.908;2022-10-18T11:59:27;13.20;;;5.70;;
13683;SDS011;6914;53.552;9.908;2022-10-18T12:02:00;19.00;;;5.90;;
13683;SDS011;6914;53.552;9.908;2022-10-18T12:04:41;15.17;;;5.90;;
13683;SDS011;6914;53.552;9.908;2022-10-18T12:07:12;13.77;;;5.10;;
13683;SDS011;6914;53.552;9.908;2022-10-18T12:09:43;16.70;;;6.37;;
13683;SDS011;6914;53.552;9.908;2022-10-18T12:12:13;16.67;;;5.30;;
13683;SDS011;6914;53.552;9.908;2022-10-18T12:14:43;13.50;;;5.33;;
13683;SDS011;6914;53.552;9.908;2022-10-18T12:17:15;15.87;;;4.93;;
13683;SDS011;6914;53.552;9.908;2022-10-18T12:19:46;8.60;;;4.97;;
13683;SDS011;6914;53.552;9.908;2022-10-18T12:22:16;13.13;;;5.57;;
13683;SDS011;6914;53.552;9.908;2022-10-18T12:24:47;13.13;;;4.97;;
13683;SDS011;6914;53.552;9.908;2022-10-18T12:27:16;10.33;;;3.80;;
13683;SDS011;6914;53.552;9.908;2022-10-18T12:29:46;9.90;;;4.40;;
13683;SDS011;6914;53.552;9.908;2022-10-18T12:32:18;13.70;;;2.63;;
13683;SDS011;6914;53.552;9.908;2022-10-18T12:34:48;21.00;;;2.70;;
13683;SDS011;6914;53.552;9.908;2022-10-18T12:40:18;7.07;;;2.47;;
13683;SDS011;6914;53.552;9.908;2022-10-18T12:42:48;9.73;;;2.73;;
13683;SDS011;6914;53.552;9.908;2022-10-18T12:45:20;5.60;;;2.40;;
13683;SDS011;6914;53.552;9.908;2022-10-18T12:47:53;8.43;;;2.00;;
13683;SDS011;6914;53.552;9.908;2022-10-18T12:50:31;11.80;;;2.23;;
13683;SDS011;6914;53.552;9.908;2022-10-18T12:53:00;7.00;;;2.30;;
13683;SDS011;6914;53.552;9.908;2022-10-18T12:55:32;5.27;;;1.80;;
13683;SDS011;6914;53.552;9.908;2022-10-18T13:00:52;5.63;;;2.27;;
13683;SDS011;6914;53.552;9.908;2022-10-18T13:03:33;10.83;;;2.10;;
13683;SDS011;6914;53.552;9.908;2022-10-18T13:06:04;6.73;;;2.53;;
13683;SDS011;6914;53.552;9.908;2022-10-18T13:08:35;14.17;;;3.00;;
13683;SDS011;6914;53.552;9.908;2022-10-18T13:11:30;4.00;;;1.67;;
13683;SDS011;6914;53.552;9.908;2022-10-18T13:17:17;13.70;;;2.50;;
13683;SDS011;6914;53.552;9.908;2022-10-18T13:19:53;9.13;;;2.40;;
13683;SDS011;6914;53.552;9.908;2022-10-18T13:22:29;9.33;;;2.00;;
13683;SDS011;6914;53.552;9.908;2022-10-18T13:25:12;12.10;;;2.10;;
13683;SDS011;6914;53.552;9.908;2022-10-18T13:27:48;27.43;;;2.73;;
13683;SDS011;6914;53.552;9.908;2022-10-18T13:30:24;12.43;;;2.03;;
13683;SDS011;6914;53.552;9.908;2022-10-18T13:32:58;6.30;;;2.07;;
13683;SDS011;6914;53.552;9.908;2022-10-18T13:35:44;6.33;;;2.07;;
13683;SDS011;6914;53.552;9.908;2022-10-18T13:41:07;9.77;;;1.80;;
13683;SDS011;6914;53.552;9.908;2022-10-18T13:43:55;8.97;;;2.17;;
13683;SDS011;6914;53.552;9.908;2022-10-18T13:52:51;21.30;;;2.30;;
13683;SDS011;6914;53.552;9.908;2022-10-18T13:55:36;18.70;;;2.70;;
13683;SDS011;6914;53.552;9.908;2022-10-18T13:58:21;8.83;;;1.93;;
13683;SDS011;6914;53.552;9.908;2022-10-18T14:00:59;7.13;;;1.60;;
13683;SDS011;6914;53.552;9.908;2022-10-18T14:03:54;6.80;;;2.20;;
13683;SDS011;6914;53.552;9.908;2022-10-18T14:06:47;5.57;;;1.13;;
13683;SDS011;6914;53.552;9.908;2022-10-18T14:09:17;15.00;;;2.30;;
13683;SDS011;6914;53.552;9.908;2022-10-18T14:11:48;27.53;;;2.50;;
13683;SDS011;6914;53.552;9.908;2022-10-18T14:14:19;11.67;;;2.40;;
13683;SDS011;6914;53.552;9.908;2022-10-18T14:16:53;10.53;;;1.77;;
13683;SDS011;6914;53.552;9.908;2022-10-18T14:19:27;8.70;;;2.10;;
13683;SDS011;6914;53.552;9.908;2022-10-18T14:22:05;4.57;;;1.57;;
13683;SDS011;6914;53.552;9.908;2022-10-18T14:24:37;9.97;;;1.70;;
13683;SDS011;6914;53.552;9.908;2022-10-18T14:27:11;24.83;;;2.27;;
13683;SDS011;6914;53.552;9.908;2022-10-18T14:29:42;3.37;;;1.67;;
13683;SDS011;6914;53.552;9.908;2022-10-18T14:32:17;13.90;;;2.27;;
13683;SDS011;6914;53.552;9.908;2022-10-18T14:34:51;6.50;;;1.43;;
13683;SDS011;6914;53.552;9.908;2022-10-18T14:37:20;11.40;;;1.80;;
13683;SDS011;6914;53.552;9.908;2022-10-18T14:39:52;7.90;;;1.40;;
13683;SDS011;6914;53.552;9.908;2022-10-18T14:42:20;6.13;;;1.60;;
13683;SDS011;6914;53.552;9.908;2022-10-18T14:44:48;11.20;;;3.17;;
13683;SDS011;6914;53.552;9.908;2022-10-18T14:47:19;26.13;;;1.97;;
13683;SDS011;6914;53.552;9.908;2022-10-18T14:49:48;10.10;;;2.17;;
13683;SDS011;6914;53.552;9.908;2022-10-18T14:52:18;14.07;;;2.67;;
13683;SDS011;6914;53.552;9.908;2022-10-18T14:54:48;8.57;;;2.07;;
13683;SDS011;6914;53.552;9.908;2022-10-18T14:57:17;14.10;;;2.40;;
13683;SDS011;6914;53.552;9.908;2022-10-18T14:59:47;14.43;;;1.63;;
13683;SDS011;6914;53.552;9.908;2022-10-18T15:02:22;12.80;;;2.33;;
13683;SDS011;6914;53.552;9.908;2022-10-18T15:04:54;5.93;;;2.03;;
13683;SDS011;6914;53.552;9.908;2022-10-18T15:07:22;9.77;;;2.10;;
13683;SDS011;6914;53.552;9.908;2022-10-18T15:09:52;7.63;;;2.20;;
13683;SDS011;6914;53.552;9.908;2022-10-18T15:12:21;10.93;;;1.47;;
13683;SDS011;6914;53.552;9.908;2022-10-18T15:14:48;14.57;;;2.30;;
13683;SDS011;6914;53.552;9.908;2022-10-18T15:17:18;13.90;;;2.30;;
13683;SDS011;6914;53.552;9.908;2022-10-18T15:19:53;4.90;;;2.13;;
13683;SDS011;6914;53.552;9.908;2022-10-18T15:22:22;21.27;;;2.90;;
13683;SDS011;6914;53.552;9.908;2022-10-18T15:25:10;17.37;;;2.50;;
13683;SDS011;6914;53.552;9.908;2022-10-18T15:27:40;21.23;;;2.43;;
13683;SDS011;6914;53.552;9.908;2022-10-18T15:30:14;15.13;;;2.80;;
13683;SDS011;6914;53.552;9.908;2022-10-18T15:32:52;13.03;;;2.47;;
13683;SDS011;6914;53.552;9.908;2022-10-18T15:35:22;15.90;;;2.63;;